sensor_id;sensor_type;location;lat;lon;timestamp;temperature;humidity
33368;DHT22;19724;51.114;13.906;2023-03-01T00:01:25;-3.50;99.90
33368;DHT22;19724;51.114;13.906;2023-03-01T00:03:52;-3.60;99.90
33368;DHT22;19724;51.114;13.906;2023-03-01T00:06:19;-3.60;99.90
33368;DHT22;19724;51.114;13.906;2023-03-01T00:08:45;-3.60;99.90
33368;DHT22;19724;51.114;13.906;2023-03-01T00:11:26;-3.70;99.90
33368;DHT22;19724;51.114;13.906;2023-03-01T00:13:54;-3.70;99.90
33368;DHT22;19724;51.114;13.906;2023-03-01T00:16:26;-3.80;99.90
33368;DHT22;19724;51.114;13.906;2023-03-01T00:18:53;-3.80;99.90
33368;DHT22;19724;51.114;13.906;2023-03-01T00:21:20;-3.80;99.90
33368;DHT22;19724;51.114;13.906;2023-03-01T00:23:46;-3.80;99.90
33368;DHT22;19724;51.114;13.906;2023-03-01T00:26:14;-3.80;99.90
33368;DHT22;19724;51.114;13.906;2023-03-01T00:28:40;-3.90;99.90
33368;DHT22;19724;51.114;13.906;2023-03-01T00:31:12;-3.80;99.90
33368;DHT22;19724;51.114;13.906;2023-03-01T00:33:39;-3.90;99.90
33368;DHT22;19724;51.114;13.906;2023-03-01T00:36:05;-3.90;99.90
33368;DHT22;19724;51.114;13.906;2023-03-01T00:38:35;-4.00;99.90
33368;DHT22;19724;51.114;13.906;2023-03-01T00:41:12;-4.00;99.90
33368;DHT22;19724;51.114;13.906;2023-03-01T00:43:39;-4.00;99.90
33368;DHT22;19724;51.114;13.906;2023-03-01T00:46:08;-4.00;99.90
33368;DHT22;19724;51.114;13.906;2023-03-01T00:48:34;-4.00;99.90
33368;DHT22;19724;51.114;13.906;2023-03-01T00:51:15;-4.00;99.90
33368;DHT22;19724;51.114;13.906;2023-03-01T00:53:41;-4.00;99.90
33368;DHT22;19724;51.114;13.906;2023-03-01T00:56:08;-4.00;99.90
33368;DHT22;19724;51.114;13.906;2023-03-01T00:58:34;-4.00;99.90
33368;DHT22;19724;51.114;13.906;2023-03-01T01:01:00;-4.10;99.90
33368;DHT22;19724;51.114;13.906;2023-03-01T01:03:26;-4.10;99.90
33368;DHT22;19724;51.114;13.906;2023-03-01T01:05:52;-4.10;99.90
33368;DHT22;19724;51.114;13.906;2023-03-01T01:08:18;-4.20;99.90
33368;DHT22;19724;51.114;13.906;2023-03-01T01:10:45;-4.20;99.90
33368;DHT22;19724;51.114;13.906;2023-03-01T01:13:11;-4.20;99.90
33368;DHT22;19724;51.114;13.906;2023-03-01T01:15:36;-4.20;99.90
33368;DHT22;19724;51.114;13.906;2023-03-01T01:18:02;-4.20;99.90
33368;DHT22;19724;51.114;13.906;2023-03-01T01:20:29;-4.30;99.90
33368;DHT22;19724;51.114;13.906;2023-03-01T01:22:54;-4.30;99.90
33368;DHT22;19724;51.114;13.906;2023-03-01T01:25:20;-4.30;99.90
33368;DHT22;19724;51.114;13.906;2023-03-01T01:27:46;-4.30;99.90
33368;DHT22;19724;51.114;13.906;2023-03-01T01:30:12;-4.40;99.90
33368;DHT22;19724;51.114;13.906;2023-03-01T01:32:38;-4.40;99.90
33368;DHT22;19724;51.114;13.906;2023-03-01T01:35:04;-4.40;99.90
33368;DHT22;19724;51.114;13.906;2023-03-01T01:37:29;-4.40;99.90
33368;DHT22;19724;51.114;13.906;2023-03-01T01:39:57;-4.40;99.90
33368;DHT22;19724;51.114;13.906;2023-03-01T01:42:24;-4.40;99.90
33368;DHT22;19724;51.114;13.906;2023-03-01T01:45:24;-4.40;99.90
33368;DHT22;19724;51.114;13.906;2023-03-01T01:47:52;-4.50;99.90
33368;DHT22;19724;51.114;13.906;2023-03-01T01:50:19;-4.50;99.90
33368;DHT22;19724;51.114;13.906;2023-03-01T01:52:47;-4.50;99.90
33368;DHT22;19724;51.114;13.906;2023-03-01T01:55:23;-4.50;99.90
33368;DHT22;19724;51.114;13.906;2023-03-01T01:57:54;-4.60;99.90
33368;DHT22;19724;51.114;13.906;2023-03-01T02:00:27;-4.60;99.90
33368;DHT22;19724;51.114;13.906;2023-03-01T02:03:00;-4.60;99.90
33368;DHT22;19724;51.114;13.906;2023-03-01T02:05:57;-4.60;99.90
33368;DHT22;19724;51.114;13.906;2023-03-01T02:08:28;-4.60;99.90
33368;DHT22;19724;51.114;13.906;2023-03-01T02:10:56;-4.60;99.90
33368;DHT22;19724;51.114;13.906;2023-03-01T02:13:22;-4.60;99.90
33368;DHT22;19724;51.114;13.906;2023-03-01T02:15:48;-4.60;99.90
33368;DHT22;19724;51.114;13.906;2023-03-01T02:18:17;-4.60;99.90
33368;DHT22;19724;51.114;13.906;2023-03-01T02:23:29;-4.70;99.90
33368;DHT22;19724;51.114;13.906;2023-03-01T02:26:03;-4.60;99.90
33368;DHT22;19724;51.114;13.906;2023-03-01T02:28:37;-4.60;99.90
33368;DHT22;19724;51.114;13.906;2023-03-01T02:31:09;-4.70;99.90
33368;DHT22;19724;51.114;13.906;2023-03-01T02:33:55;-4.70;99.90
33368;DHT22;19724;51.114;13.906;2023-03-01T02:36:31;-4.70;99.90
33368;DHT22;19724;51.114;13.906;2023-03-01T02:39:00;-4.80;99.90
33368;DHT22;19724;51.114;13.906;2023-03-01T02:41:30;-4.80;99.90
33368;DHT22;19724;51.114;13.906;2023-03-01T02:43:56;-4.80;99.90
33368;DHT22;19724;51.114;13.906;2023-03-01T02:46:24;-4.80;99.90
33368;DHT22;19724;51.114;13.906;2023-03-01T02:48:52;-4.90;99.90
33368;DHT22;19724;51.114;13.906;2023-03-01T02:54:18;-4.90;99.90
33368;DHT22;19724;51.114;13.906;2023-03-01T02:56:47;-5.00;99.90
33368;DHT22;19724;51.114;13.906;2023-03-01T02:59:21;-5.00;99.90
33368;DHT22;19724;51.114;13.906;2023-03-01T03:01:47;-5.10;99.90
33368;DHT22;19724;51.114;13.906;2023-03-01T03:04:15;-5.10;99.90
33368;DHT22;19724;51.114;13.906;2023-03-01T03:06:45;-5.10;99.90
33368;DHT22;19724;51.114;13.906;2023-03-01T03:09:11;-5.10;99.90
33368;DHT22;19724;51.114;13.906;2023-03-01T03:11:37;-5.10;99.90
33368;DHT22;19724;51.114;13.906;2023-03-01T03:14:05;-5.20;99.90
33368;DHT22;19724;51.114;13.906;2023-03-01T03:16:31;-5.20;99.90
33368;DHT22;19724;51.114;13.906;2023-03-01T03:18:56;-5.20;99.90
33368;DHT22;19724;51.114;13.906;2023-03-01T03:21:31;-5.20;99.90
33368;DHT22;19724;51.114;13.906;2023-03-01T03:23:56;-5.30;99.90
33368;DHT22;19724;51.114;13.906;2023-03-01T03:26:23;-5.20;99.90
33368;DHT22;19724;51.114;13.906;2023-03-01T03:28:48;-5.20;99.90
33368;DHT22;19724;51.114;13.906;2023-03-01T03:31:13;-5.20;99.90
33368;DHT22;19724;51.114;13.906;2023-03-01T03:33:39;-5.20;99.90
33368;DHT22;19724;51.114;13.906;2023-03-01T03:36:05;-5.20;99.90
33368;DHT22;19724;51.114;13.906;2023-03-01T03:38:30;-5.30;99.90
33368;DHT22;19724;51.114;13.906;2023-03-01T03:41:02;-5.30;99.90
33368;DHT22;19724;51.114;13.906;2023-03-01T03:43:31;-5.30;99.90
33368;DHT22;19724;51.114;13.906;2023-03-01T03:45:57;-5.30;99.90
33368;DHT22;19724;51.114;13.906;2023-03-01T03:48:23;-5.30;99.90
33368;DHT22;19724;51.114;13.906;2023-03-01T03:50:54;-5.30;99.90
33368;DHT22;19724;51.114;13.906;2023-03-01T03:53:22;-5.40;99.90
33368;DHT22;19724;51.114;13.906;2023-03-01T03:55:47;-5.40;99.90
33368;DHT22;19724;51.114;13.906;2023-03-01T03:58:17;-5.40;99.90
33368;DHT22;19724;51.114;13.906;2023-03-01T04:00:46;-5.40;99.90
33368;DHT22;19724;51.114;13.906;2023-03-01T04:03:14;-5.50;99.90
33368;DHT22;19724;51.114;13.906;2023-03-01T04:05:41;-5.50;99.90
33368;DHT22;19724;51.114;13.906;2023-03-01T04:08:07;-5.40;99.90
33368;DHT22;19724;51.114;13.906;2023-03-01T04:10:39;-5.40;99.90
33368;DHT22;19724;51.114;13.906;2023-03-01T04:13:06;-5.40;99.90
33368;DHT22;19724;51.114;13.906;2023-03-01T04:15:33;-5.40;99.90
33368;DHT22;19724;51.114;13.906;2023-03-01T04:17:59;-5.50;99.90
33368;DHT22;19724;51.114;13.906;2023-03-01T04:20:27;-5.50;99.90
33368;DHT22;19724;51.114;13.906;2023-03-01T04:23:16;-5.50;99.90
33368;DHT22;19724;51.114;13.906;2023-03-01T04:25:47;-5.50;99.90
33368;DHT22;19724;51.114;13.906;2023-03-01T04:30:50;-5.50;99.90
33368;DHT22;19724;51.114;13.906;2023-03-01T04:33:15;-5.50;99.90
33368;DHT22;19724;51.114;13.906;2023-03-01T04:35:41;-5.60;99.90
33368;DHT22;19724;51.114;13.906;2023-03-01T04:38:07;-5.60;99.90
33368;DHT22;19724;51.114;13.906;2023-03-01T04:40:33;-5.60;99.90
33368;DHT22;19724;51.114;13.906;2023-03-01T04:42:59;-5.60;99.90
33368;DHT22;19724;51.114;13.906;2023-03-01T04:45:24;-5.60;99.90
33368;DHT22;19724;51.114;13.906;2023-03-01T04:47:50;-5.60;99.90
33368;DHT22;19724;51.114;13.906;2023-03-01T04:50:18;-5.60;99.90
33368;DHT22;19724;51.114;13.906;2023-03-01T04:52:46;-5.60;99.90
33368;DHT22;19724;51.114;13.906;2023-03-01T04:55:12;-5.60;99.90
33368;DHT22;19724;51.114;13.906;2023-03-01T04:57:37;-5.60;99.90
33368;DHT22;19724;51.114;13.906;2023-03-01T05:00:05;-5.60;99.90
33368;DHT22;19724;51.114;13.906;2023-03-01T05:02:54;-5.60;99.90
33368;DHT22;19724;51.114;13.906;2023-03-01T05:05:27;-5.60;99.90
33368;DHT22;19724;51.114;13.906;2023-03-01T05:07:54;-5.60;99.90
33368;DHT22;19724;51.114;13.906;2023-03-01T05:10:20;-5.60;99.90
33368;DHT22;19724;51.114;13.906;2023-03-01T05:12:46;-5.70;99.90
33368;DHT22;19724;51.114;13.906;2023-03-01T05:15:12;-5.70;99.90
33368;DHT22;19724;51.114;13.906;2023-03-01T05:17:37;-5.80;99.90
33368;DHT22;19724;51.114;13.906;2023-03-01T05:20:03;-5.80;99.90
33368;DHT22;19724;51.114;13.906;2023-03-01T05:22:34;-5.80;99.90
33368;DHT22;19724;51.114;13.906;2023-03-01T05:24:59;-5.80;99.90
33368;DHT22;19724;51.114;13.906;2023-03-01T05:27:25;-5.80;99.90
33368;DHT22;19724;51.114;13.906;2023-03-01T05:29:50;-5.80;99.90
33368;DHT22;19724;51.114;13.906;2023-03-01T05:32:16;-5.80;99.90
33368;DHT22;19724;51.114;13.906;2023-03-01T05:34:42;-5.90;99.90
33368;DHT22;19724;51.114;13.906;2023-03-01T05:37:09;-5.80;99.90
33368;DHT22;19724;51.114;13.906;2023-03-01T05:39:34;-5.80;99.90
33368;DHT22;19724;51.114;13.906;2023-03-01T05:42:01;-5.90;99.90
33368;DHT22;19724;51.114;13.906;2023-03-01T05:44:28;-5.90;99.90
33368;DHT22;19724;51.114;13.906;2023-03-01T05:46:54;-5.90;99.90
33368;DHT22;19724;51.114;13.906;2023-03-01T05:49:20;-5.90;99.90
33368;DHT22;19724;51.114;13.906;2023-03-01T05:51:51;-5.90;99.90
33368;DHT22;19724;51.114;13.906;2023-03-01T05:54:17;-5.90;99.90
33368;DHT22;19724;51.114;13.906;2023-03-01T05:56:44;-5.90;99.90
33368;DHT22;19724;51.114;13.906;2023-03-01T05:59:10;-5.90;99.90
33368;DHT22;19724;51.114;13.906;2023-03-01T06:01:37;-5.90;99.90
33368;DHT22;19724;51.114;13.906;2023-03-01T06:04:03;-5.80;99.90
33368;DHT22;19724;51.114;13.906;2023-03-01T06:06:29;-5.90;99.90
33368;DHT22;19724;51.114;13.906;2023-03-01T06:08:55;-5.80;99.90
33368;DHT22;19724;51.114;13.906;2023-03-01T06:11:21;-5.80;99.90
33368;DHT22;19724;51.114;13.906;2023-03-01T06:13:47;-5.80;99.90
33368;DHT22;19724;51.114;13.906;2023-03-01T06:16:14;-5.80;99.90
33368;DHT22;19724;51.114;13.906;2023-03-01T06:18:40;-5.90;99.90
33368;DHT22;19724;51.114;13.906;2023-03-01T06:21:07;-5.80;99.90
33368;DHT22;19724;51.114;13.906;2023-03-01T06:23:33;-5.80;99.90
33368;DHT22;19724;51.114;13.906;2023-03-01T06:25:59;-5.70;99.90
33368;DHT22;19724;51.114;13.906;2023-03-01T06:28:25;-5.70;99.90
33368;DHT22;19724;51.114;13.906;2023-03-01T06:30:51;-5.60;99.90
33368;DHT22;19724;51.114;13.906;2023-03-01T06:33:17;-5.60;99.90
33368;DHT22;19724;51.114;13.906;2023-03-01T06:35:45;-5.50;99.90
33368;DHT22;19724;51.114;13.906;2023-03-01T06:38:11;-5.50;99.90
33368;DHT22;19724;51.114;13.906;2023-03-01T06:40:37;-5.40;99.90
33368;DHT22;19724;51.114;13.906;2023-03-01T06:43:02;-5.40;99.90
33368;DHT22;19724;51.114;13.906;2023-03-01T06:45:28;-5.30;99.90
33368;DHT22;19724;51.114;13.906;2023-03-01T06:48:05;-5.20;99.90
33368;DHT22;19724;51.114;13.906;2023-03-01T06:50:31;-5.10;99.90
33368;DHT22;19724;51.114;13.906;2023-03-01T06:52:57;-5.10;99.90
33368;DHT22;19724;51.114;13.906;2023-03-01T06:55:23;-5.00;99.90
33368;DHT22;19724;51.114;13.906;2023-03-01T06:57:48;-4.90;99.90
33368;DHT22;19724;51.114;13.906;2023-03-01T07:00:14;-4.90;99.90
33368;DHT22;19724;51.114;13.906;2023-03-01T07:02:40;-4.80;99.90
33368;DHT22;19724;51.114;13.906;2023-03-01T07:05:06;-4.70;99.90
33368;DHT22;19724;51.114;13.906;2023-03-01T07:07:32;-4.60;99.90
33368;DHT22;19724;51.114;13.906;2023-03-01T07:09:58;-4.50;99.90
33368;DHT22;19724;51.114;13.906;2023-03-01T07:12:23;-4.40;99.90
33368;DHT22;19724;51.114;13.906;2023-03-01T07:14:49;-4.30;99.90
33368;DHT22;19724;51.114;13.906;2023-03-01T07:17:14;-4.30;99.90
33368;DHT22;19724;51.114;13.906;2023-03-01T07:19:40;-4.20;99.90
33368;DHT22;19724;51.114;13.906;2023-03-01T07:22:05;-4.10;99.90
33368;DHT22;19724;51.114;13.906;2023-03-01T07:24:33;-4.00;99.90
33368;DHT22;19724;51.114;13.906;2023-03-01T07:26:58;-3.80;99.90
33368;DHT22;19724;51.114;13.906;2023-03-01T07:29:24;-3.70;99.90
33368;DHT22;19724;51.114;13.906;2023-03-01T07:31:49;-3.60;99.90
33368;DHT22;19724;51.114;13.906;2023-03-01T07:34:15;-3.40;99.90
33368;DHT22;19724;51.114;13.906;2023-03-01T07:36:41;-3.30;99.90
33368;DHT22;19724;51.114;13.906;2023-03-01T07:39:09;-3.10;99.90
33368;DHT22;19724;51.114;13.906;2023-03-01T07:41:34;-3.00;99.90
33368;DHT22;19724;51.114;13.906;2023-03-01T07:44:00;-2.80;99.90
33368;DHT22;19724;51.114;13.906;2023-03-01T07:46:26;-2.60;99.90
33368;DHT22;19724;51.114;13.906;2023-03-01T07:48:51;-2.50;99.90
33368;DHT22;19724;51.114;13.906;2023-03-01T07:51:16;-2.30;99.90
33368;DHT22;19724;51.114;13.906;2023-03-01T07:53:44;-2.20;99.90
33368;DHT22;19724;51.114;13.906;2023-03-01T07:56:12;-2.10;99.90
33368;DHT22;19724;51.114;13.906;2023-03-01T07:58:40;-1.90;99.90
33368;DHT22;19724;51.114;13.906;2023-03-01T08:01:08;-1.70;99.90
33368;DHT22;19724;51.114;13.906;2023-03-01T08:03:35;-1.60;99.90
33368;DHT22;19724;51.114;13.906;2023-03-01T08:06:05;-1.40;99.90
33368;DHT22;19724;51.114;13.906;2023-03-01T08:08:31;-1.20;99.90
33368;DHT22;19724;51.114;13.906;2023-03-01T08:10:58;-0.90;99.90
33368;DHT22;19724;51.114;13.906;2023-03-01T08:13:24;-0.80;99.90
33368;DHT22;19724;51.114;13.906;2023-03-01T08:15:50;-0.60;99.90
33368;DHT22;19724;51.114;13.906;2023-03-01T08:18:16;-0.40;99.90
33368;DHT22;19724;51.114;13.906;2023-03-01T08:20:42;-0.20;99.90
33368;DHT22;19724;51.114;13.906;2023-03-01T08:23:08;0.00;99.90
33368;DHT22;19724;51.114;13.906;2023-03-01T08:25:33;0.20;99.90
33368;DHT22;19724;51.114;13.906;2023-03-01T08:27:59;0.40;99.90
33368;DHT22;19724;51.114;13.906;2023-03-01T08:30:25;0.60;99.90
33368;DHT22;19724;51.114;13.906;2023-03-01T08:32:51;0.70;99.90
33368;DHT22;19724;51.114;13.906;2023-03-01T08:35:17;0.80;99.90
33368;DHT22;19724;51.114;13.906;2023-03-01T08:37:42;1.00;99.90
33368;DHT22;19724;51.114;13.906;2023-03-01T08:40:09;1.20;99.90
33368;DHT22;19724;51.114;13.906;2023-03-01T08:42:37;1.30;99.90
33368;DHT22;19724;51.114;13.906;2023-03-01T08:45:03;1.50;99.90
33368;DHT22;19724;51.114;13.906;2023-03-01T08:47:29;1.70;99.90
33368;DHT22;19724;51.114;13.906;2023-03-01T08:49:54;1.90;99.90
33368;DHT22;19724;51.114;13.906;2023-03-01T08:52:20;2.00;99.90
33368;DHT22;19724;51.114;13.906;2023-03-01T08:54:49;2.20;99.90
33368;DHT22;19724;51.114;13.906;2023-03-01T08:57:15;2.40;99.90
33368;DHT22;19724;51.114;13.906;2023-03-01T08:59:40;2.60;99.90
33368;DHT22;19724;51.114;13.906;2023-03-01T09:02:12;2.80;99.90
33368;DHT22;19724;51.114;13.906;2023-03-01T09:04:38;3.00;99.90
33368;DHT22;19724;51.114;13.906;2023-03-01T09:07:03;3.20;99.90
33368;DHT22;19724;51.114;13.906;2023-03-01T09:09:29;3.30;99.90
33368;DHT22;19724;51.114;13.906;2023-03-01T09:11:54;3.50;99.90
33368;DHT22;19724;51.114;13.906;2023-03-01T09:14:20;3.70;99.90
33368;DHT22;19724;51.114;13.906;2023-03-01T09:16:46;3.90;99.90
33368;DHT22;19724;51.114;13.906;2023-03-01T09:19:11;4.20;99.90
33368;DHT22;19724;51.114;13.906;2023-03-01T09:21:37;4.40;99.90
33368;DHT22;19724;51.114;13.906;2023-03-01T09:24:03;4.80;99.90
33368;DHT22;19724;51.114;13.906;2023-03-01T09:26:28;5.00;99.90
33368;DHT22;19724;51.114;13.906;2023-03-01T09:28:55;5.30;99.90
33368;DHT22;19724;51.114;13.906;2023-03-01T09:31:23;5.50;99.90
33368;DHT22;19724;51.114;13.906;2023-03-01T09:33:50;5.70;99.90
33368;DHT22;19724;51.114;13.906;2023-03-01T09:36:18;6.00;99.90
33368;DHT22;19724;51.114;13.906;2023-03-01T09:38:44;6.10;99.90
33368;DHT22;19724;51.114;13.906;2023-03-01T09:41:34;6.30;99.90
33368;DHT22;19724;51.114;13.906;2023-03-01T09:44:10;6.50;99.90
33368;DHT22;19724;51.114;13.906;2023-03-01T09:46:42;6.60;99.90
33368;DHT22;19724;51.114;13.906;2023-03-01T09:49:15;6.70;99.90
33368;DHT22;19724;51.114;13.906;2023-03-01T09:51:47;6.70;99.90
33368;DHT22;19724;51.114;13.906;2023-03-01T09:54:15;6.90;99.90
33368;DHT22;19724;51.114;13.906;2023-03-01T09:56:51;7.00;99.90
33368;DHT22;19724;51.114;13.906;2023-03-01T10:02:51;7.50;99.90
33368;DHT22;19724;51.114;13.906;2023-03-01T10:05:35;7.80;99.90
33368;DHT22;19724;51.114;13.906;2023-03-01T10:10:33;8.10;99.90
33368;DHT22;19724;51.114;13.906;2023-03-01T10:13:05;8.30;99.90
33368;DHT22;19724;51.114;13.906;2023-03-01T10:15:47;8.50;99.90
33368;DHT22;19724;51.114;13.906;2023-03-01T10:18:17;8.80;99.90
33368;DHT22;19724;51.114;13.906;2023-03-01T10:21:00;8.90;99.90
33368;DHT22;19724;51.114;13.906;2023-03-01T10:23:28;9.00;99.90
33368;DHT22;19724;51.114;13.906;2023-03-01T10:26:05;9.10;99.90
33368;DHT22;19724;51.114;13.906;2023-03-01T10:31:20;9.60;99.90
33368;DHT22;19724;51.114;13.906;2023-03-01T10:33:48;9.80;99.90
33368;DHT22;19724;51.114;13.906;2023-03-01T10:36:17;9.90;99.90
33368;DHT22;19724;51.114;13.906;2023-03-01T10:38:56;10.00;99.90
33368;DHT22;19724;51.114;13.906;2023-03-01T10:41:24;10.20;99.90
33368;DHT22;19724;51.114;13.906;2023-03-01T10:43:55;10.50;99.90
33368;DHT22;19724;51.114;13.906;2023-03-01T10:51:31;11.00;99.90
33368;DHT22;19724;51.114;13.906;2023-03-01T10:53:56;11.20;99.90
33368;DHT22;19724;51.114;13.906;2023-03-01T10:56:22;11.20;99.90
33368;DHT22;19724;51.114;13.906;2023-03-01T11:01:26;11.40;99.90
33368;DHT22;19724;51.114;13.906;2023-03-01T11:06:36;11.70;99.90
33368;DHT22;19724;51.114;13.906;2023-03-01T11:11:40;11.80;99.90
33368;DHT22;19724;51.114;13.906;2023-03-01T11:14:16;11.80;99.90
33368;DHT22;19724;51.114;13.906;2023-03-01T11:16:45;11.80;99.90
33368;DHT22;19724;51.114;13.906;2023-03-01T11:21:47;12.10;99.90
33368;DHT22;19724;51.114;13.906;2023-03-01T11:24:16;12.30;99.90
33368;DHT22;19724;51.114;13.906;2023-03-01T11:26:47;12.40;99.90
33368;DHT22;19724;51.114;13.906;2023-03-01T11:29:35;12.50;99.90
33368;DHT22;19724;51.114;13.906;2023-03-01T11:32:06;12.50;99.90
33368;DHT22;19724;51.114;13.906;2023-03-01T11:34:53;12.60;99.90
33368;DHT22;19724;51.114;13.906;2023-03-01T11:37:39;12.50;99.90
33368;DHT22;19724;51.114;13.906;2023-03-01T11:45:11;12.70;99.90
33368;DHT22;19724;51.114;13.906;2023-03-01T11:47:58;12.90;99.90
33368;DHT22;19724;51.114;13.906;2023-03-01T11:51:08;13.00;99.90
33368;DHT22;19724;51.114;13.906;2023-03-01T11:59:08;13.40;99.90
33368;DHT22;19724;51.114;13.906;2023-03-01T12:01:51;13.40;99.90
33368;DHT22;19724;51.114;13.906;2023-03-01T12:07:40;13.50;99.90
33368;DHT22;19724;51.114;13.906;2023-03-01T12:10:23;13.50;99.90
33368;DHT22;19724;51.114;13.906;2023-03-01T12:21:14;13.90;99.90
33368;DHT22;19724;51.114;13.906;2023-03-01T12:26:35;13.10;99.90
33368;DHT22;19724;51.114;13.906;2023-03-01T12:31:47;13.10;99.90
33368;DHT22;19724;51.114;13.906;2023-03-01T12:36:59;13.10;99.90
33368;DHT22;19724;51.114;13.906;2023-03-01T12:42:23;13.20;99.90
33368;DHT22;19724;51.114;13.906;2023-03-01T12:45:16;13.40;99.90
33368;DHT22;19724;51.114;13.906;2023-03-01T12:50:59;13.40;99.90
33368;DHT22;19724;51.114;13.906;2023-03-01T12:53:23;13.30;99.90
33368;DHT22;19724;51.114;13.906;2023-03-01T12:55:51;13.40;99.90
33368;DHT22;19724;51.114;13.906;2023-03-01T13:04:14;13.50;99.90
33368;DHT22;19724;51.114;13.906;2023-03-01T13:07:23;13.60;99.90
33368;DHT22;19724;51.114;13.906;2023-03-01T13:15:30;14.00;99.90
33368;DHT22;19724;51.114;13.906;2023-03-01T13:17:58;14.00;99.90
33368;DHT22;19724;51.114;13.906;2023-03-01T13:26:04;14.20;99.90
33368;DHT22;19724;51.114;13.906;2023-03-01T13:28:40;14.20;99.90
33368;DHT22;19724;51.114;13.906;2023-03-01T13:31:08;14.20;99.90
33368;DHT22;19724;51.114;13.906;2023-03-01T13:33:41;14.30;99.90
33368;DHT22;19724;51.114;13.906;2023-03-01T13:36:08;14.30;99.90
33368;DHT22;19724;51.114;13.906;2023-03-01T13:38:48;14.40;99.90
33368;DHT22;19724;51.114;13.906;2023-03-01T13:44:30;14.60;99.90
33368;DHT22;19724;51.114;13.906;2023-03-01T13:49:57;15.10;99.90
33368;DHT22;19724;51.114;13.906;2023-03-01T13:52:44;15.20;99.90
33368;DHT22;19724;51.114;13.906;2023-03-01T13:55:23;15.10;99.90
33368;DHT22;19724;51.114;13.906;2023-03-01T13:57:54;15.10;99.90
33368;DHT22;19724;51.114;13.906;2023-03-01T14:00:30;14.80;99.90
33368;DHT22;19724;51.114;13.906;2023-03-01T14:03:02;14.90;99.90
33368;DHT22;19724;51.114;13.906;2023-03-01T14:05:30;15.10;99.90
33368;DHT22;19724;51.114;13.906;2023-03-01T14:07:56;15.20;99.90
33368;DHT22;19724;51.114;13.906;2023-03-01T14:10:21;15.10;99.90
33368;DHT22;19724;51.114;13.906;2023-03-01T14:15:42;14.90;99.90
33368;DHT22;19724;51.114;13.906;2023-03-01T14:20:45;14.40;99.90
33368;DHT22;19724;51.114;13.906;2023-03-01T14:23:21;14.20;99.90
33368;DHT22;19724;51.114;13.906;2023-03-01T14:25:53;13.90;99.90
33368;DHT22;19724;51.114;13.906;2023-03-01T14:28:29;13.80;99.90
33368;DHT22;19724;51.114;13.906;2023-03-01T14:31:00;13.80;99.90
33368;DHT22;19724;51.114;13.906;2023-03-01T14:33:31;13.90;99.90
33368;DHT22;19724;51.114;13.906;2023-03-01T14:36:10;14.00;99.90
33368;DHT22;19724;51.114;13.906;2023-03-01T14:38:39;14.10;99.90
33368;DHT22;19724;51.114;13.906;2023-03-01T14:41:14;14.10;99.90
33368;DHT22;19724;51.114;13.906;2023-03-01T14:44:07;14.10;99.90
33368;DHT22;19724;51.114;13.906;2023-03-01T14:46:39;14.30;99.90
33368;DHT22;19724;51.114;13.906;2023-03-01T14:49:27;14.40;99.90
33368;DHT22;19724;51.114;13.906;2023-03-01T14:51:59;14.30;99.90
33368;DHT22;19724;51.114;13.906;2023-03-01T14:54:29;14.10;99.90
33368;DHT22;19724;51.114;13.906;2023-03-01T14:57:01;14.00;99.90
33368;DHT22;19724;51.114;13.906;2023-03-01T14:59:27;14.00;99.90
33368;DHT22;19724;51.114;13.906;2023-03-01T15:01:55;14.00;99.90
33368;DHT22;19724;51.114;13.906;2023-03-01T15:04:22;14.00;99.90
33368;DHT22;19724;51.114;13.906;2023-03-01T15:06:55;13.90;99.90
33368;DHT22;19724;51.114;13.906;2023-03-01T15:09:37;13.70;99.90
33368;DHT22;19724;51.114;13.906;2023-03-01T15:14:56;13.40;99.90
33368;DHT22;19724;51.114;13.906;2023-03-01T15:17:36;13.40;99.90
33368;DHT22;19724;51.114;13.906;2023-03-01T15:20:16;13.60;99.90
33368;DHT22;19724;51.114;13.906;2023-03-01T15:22:45;13.70;99.90
33368;DHT22;19724;51.114;13.906;2023-03-01T15:25:22;13.70;99.90
33368;DHT22;19724;51.114;13.906;2023-03-01T15:27:50;13.70;99.90
33368;DHT22;19724;51.114;13.906;2023-03-01T15:30:27;13.50;99.90
33368;DHT22;19724;51.114;13.906;2023-03-01T15:33:25;13.30;99.90
33368;DHT22;19724;51.114;13.906;2023-03-01T15:35:54;12.80;99.90
33368;DHT22;19724;51.114;13.906;2023-03-01T15:38:32;12.50;99.90
33368;DHT22;19724;51.114;13.906;2023-03-01T15:41:04;12.30;99.90
33368;DHT22;19724;51.114;13.906;2023-03-01T15:43:45;11.90;99.90
33368;DHT22;19724;51.114;13.906;2023-03-01T15:48:49;11.20;99.90
33368;DHT22;19724;51.114;13.906;2023-03-01T15:51:17;11.00;99.90
33368;DHT22;19724;51.114;13.906;2023-03-01T15:53:50;10.80;99.90
33368;DHT22;19724;51.114;13.906;2023-03-01T15:56:16;10.60;99.90
33368;DHT22;19724;51.114;13.906;2023-03-01T15:58:42;10.50;99.90
33368;DHT22;19724;51.114;13.906;2023-03-01T16:01:16;10.40;99.90
33368;DHT22;19724;51.114;13.906;2023-03-01T16:03:42;10.20;99.90
33368;DHT22;19724;51.114;13.906;2023-03-01T16:06:11;10.10;99.90
33368;DHT22;19724;51.114;13.906;2023-03-01T16:08:37;9.90;99.90
33368;DHT22;19724;51.114;13.906;2023-03-01T16:11:05;9.80;99.90
33368;DHT22;19724;51.114;13.906;2023-03-01T16:13:31;9.70;99.90
33368;DHT22;19724;51.114;13.906;2023-03-01T16:15:58;9.60;99.90
33368;DHT22;19724;51.114;13.906;2023-03-01T16:18:24;9.40;99.90
33368;DHT22;19724;51.114;13.906;2023-03-01T16:20:49;9.10;99.90
33368;DHT22;19724;51.114;13.906;2023-03-01T16:23:15;8.90;99.90
33368;DHT22;19724;51.114;13.906;2023-03-01T16:25:41;8.70;99.90
33368;DHT22;19724;51.114;13.906;2023-03-01T16:28:07;8.60;99.90
33368;DHT22;19724;51.114;13.906;2023-03-01T16:30:36;8.50;99.90
33368;DHT22;19724;51.114;13.906;2023-03-01T16:33:02;8.30;99.90
33368;DHT22;19724;51.114;13.906;2023-03-01T16:35:27;8.10;99.90
33368;DHT22;19724;51.114;13.906;2023-03-01T16:37:54;7.80;99.90
33368;DHT22;19724;51.114;13.906;2023-03-01T16:40:25;7.60;99.90
33368;DHT22;19724;51.114;13.906;2023-03-01T16:42:55;7.30;99.90
33368;DHT22;19724;51.114;13.906;2023-03-01T16:45:35;7.10;99.90
33368;DHT22;19724;51.114;13.906;2023-03-01T16:48:02;6.90;99.90
33368;DHT22;19724;51.114;13.906;2023-03-01T16:50:28;6.70;99.90
33368;DHT22;19724;51.114;13.906;2023-03-01T16:52:54;6.60;99.90
33368;DHT22;19724;51.114;13.906;2023-03-01T16:55:19;6.40;99.90
33368;DHT22;19724;51.114;13.906;2023-03-01T16:57:45;6.20;99.90
33368;DHT22;19724;51.114;13.906;2023-03-01T17:00:12;6.00;99.90
33368;DHT22;19724;51.114;13.906;2023-03-01T17:02:40;5.90;99.90
33368;DHT22;19724;51.114;13.906;2023-03-01T17:05:07;5.80;99.90
33368;DHT22;19724;51.114;13.906;2023-03-01T17:07:37;5.60;99.90
33368;DHT22;19724;51.114;13.906;2023-03-01T17:10:04;5.50;99.90
33368;DHT22;19724;51.114;13.906;2023-03-01T17:12:30;5.40;99.90
33368;DHT22;19724;51.114;13.906;2023-03-01T17:14:57;5.30;99.90
33368;DHT22;19724;51.114;13.906;2023-03-01T17:17:23;5.20;99.90